Hastings, NE (68901)

6:46 AM CST on March 02, 2015 (GMT -0600)
Oswego Park | Change Station
CLOSE
Current Station
Personal Weather Station
Location: Hastings, NE
Elevation: 1949 ft
Nearby Weather Stations

Elev 1949 ft 40.59 °N, 98.41 °W | Updated 16 seconds ago

Overcast
Overcast
27.3 °F
Feels Like 22 °F
N
4.2
Wind Variable Wind from SE
Gusts 5.8 mph

Today
High -- | Low -- °F
--% Chance of Precip.
Yesterday
High -- | Low -- °F
Precip. -- in
7:06 AM 6:25 PM
Waxing Gibbous, 91% visible
Pressure 30.42 in
Visibility 10.0 miles
Clouds Overcast 7000 ft
Windchill 22 °F
Dew Point 18 °F
Humidity 66%
Rainfall 0.00 in
Snow Depth Not available.
UV 0 out of 12
Pollen 1.20 out of 12
Air Quality Not available.
Flu Activity Not available.
METAR KHSI 021153Z AUTO 13007KT 10SM OVC070 M02/M09 A3036 RMK AO2 SLP300 T10221094 11011 21028 55014

More Conditions Fewer Conditions

Pressure 30.42 in
Visibility 10.0 miles
Clouds Overcast 7000 ft
Windchill 22 °F
Dew Point 18 °F
Humidity 66%
Rainfall 0.00 in
Snow Depth Not available.
UV 0 out of 12
Pollen 1.20 out of 12
Air Quality Not available.
Flu Activity Not available.
METAR KHSI 021153Z AUTO 13007KT 10SM OVC070 M02/M09 A3036 RMK AO2 SLP300 T10221094 11011 21028 55014

More Conditions Fewer Conditions

10-Day Weather Forecast

Almanac

Astronomy

Mar. 02, 2015 Rise Set
Actual Time
Civil Twilight
Nautical Twilight
Astronomical Twilight
Moon
Length of Visible Light
Length of Day
Tomorrow will be .
, % of the Moon is Illuminated

Today's Extremes

State Highs State Lows

Community

WunderPhotos

Upload Photos

1,801,772 photos uploaded!

WunderBlogs® & News

Nearby

Air Quality

  Air Quality AQ Index Pollutant
Not available.

Snow Depth

Station Depth Elevation

Earthquake Activity

City Distance Mag. Time & Date
Minimum magnitude displayed is 2.5.

Coastal Water Temperatures

Place Temperature

Nearby Weather Stations